Time;durP1;ratioP1;P1;durP2;ratioP2;P2;SDS_P1;SDS_P2;PMS_P1;PMS_P2;Temp;Humidity;BMP_temperature;BMP_pressure;BME280_temperature;BME280_humidity;BME280_pressure;Samples;Min_cycle;Max_cycle;Signal;HPM_P1;HPM_P2
2021/09/08 00:02:02;;;;;;;28.90;21.05;;;;;;;;;;5092806;28;20060;-62
2021/09/08 00:04:47;;;;;;;24.58;20.65;;;;;;;;;;5092557;28;20056;-61
2021/09/08 00:07:32;;;;;;;26.60;19.83;;;;;;;;;;5092766;28;20102;-62
2021/09/08 00:10:17;;;;;;;25.52;19.77;;;;;;;;;;5092571;28;20044;-62
2021/09/08 00:13:03;;;;;;;27.13;20.15;;;;;;;;;;5077223;28;20048;-62
2021/09/08 00:15:48;;;;;;;24.33;19.83;;;;;;;;;;5092287;28;20048;-62
2021/09/08 00:18:33;;;;;;;22.75;19.95;;;;;;;;;;5092420;28;20048;-62
2021/09/08 00:21:18;;;;;;;27.05;21.15;;;;;;;;;;5092394;28;20048;-62
2021/09/08 00:24:04;;;;;;;24.17;19.15;;;;;;;;;;5092414;28;20126;-62
2021/09/08 00:26:49;;;;;;;25.17;19.25;;;;;;;;;;5092462;28;20126;-62
2021/09/08 00:29:34;;;;;;;22.60;18.83;;;;;;;;;;5092165;28;20052;-62
2021/09/08 00:32:20;;;;;;;25.55;19.25;;;;;;;;;;5092266;28;20490;-62
2021/09/08 00:35:05;;;;;;;23.88;20.63;;;;;;;;;;5092226;28;20438;-62
2021/09/08 00:37:50;;;;;;;25.95;21.05;;;;;;;;;;5092000;28;20526;-63
2021/09/08 00:40:36;;;;;;;25.42;20.35;;;;;;;;;;5092371;28;20059;-63
2021/09/08 00:43:22;;;;;;;23.92;19.63;;;;;;;;;;5092264;28;20048;-62
2021/09/08 00:46:07;;;;;;;24.20;20.35;;;;;;;;;;5092030;28;20052;-62
2021/09/08 00:48:52;;;;;;;26.10;19.42;;;;;;;;;;5092098;28;20052;-62
2021/09/08 00:51:38;;;;;;;25.42;19.67;;;;;;;;;;5076950;28;20056;-62
2021/09/08 00:54:25;;;;;;;26.45;20.67;;;;;;;;;;5091977;28;20048;-62
2021/09/08 00:57:11;;;;;;;27.00;21.30;;;;;;;;;;5092154;28;20052;-62
2021/09/08 01:00:02;;;;;;;28.15;22.17;;;;;;;;;;5091999;28;20052;-62
2021/09/08 01:02:49;;;;;;;25.67;21.13;;;;;;;;;;5091888;28;20517;-61
2021/09/08 01:05:36;;;;;;;24.48;20.13;;;;;;;;;;5091860;28;20059;-62
2021/09/08 01:08:24;;;;;;;25.33;20.55;;;;;;;;;;5092010;28;20052;-62
2021/09/08 01:11:09;;;;;;;26.92;22.40;;;;;;;;;;5076822;28;20085;-63
2021/09/08 01:13:54;;;;;;;25.17;21.73;;;;;;;;;;5091892;28;20088;-62
2021/09/08 01:16:41;;;;;;;25.23;19.92;;;;;;;;;;5091939;28;20056;-62
2021/09/08 01:19:26;;;;;;;25.67;21.35;;;;;;;;;;5091761;28;20052;-62
2021/09/08 01:22:11;;;;;;;24.65;20.92;;;;;;;;;;5091717;28;20573;-62
2021/09/08 01:24:57;;;;;;;29.10;22.25;;;;;;;;;;5091666;28;20048;-61
2021/09/08 01:27:42;;;;;;;27.63;22.30;;;;;;;;;;5091625;28;20501;-62
2021/09/08 01:30:27;;;;;;;24.98;20.92;;;;;;;;;;5095752;28;20056;-62
2021/09/08 01:33:13;;;;;;;28.70;22.30;;;;;;;;;;5095654;28;20043;-62
2021/09/08 01:35:59;;;;;;;27.02;20.90;;;;;;;;;;5095460;28;20567;-62
2021/09/08 01:38:44;;;;;;;26.88;21.05;;;;;;;;;;5095671;28;20382;-61
2021/09/08 01:41:29;;;;;;;25.67;21.45;;;;;;;;;;5095548;28;20044;-62
2021/09/08 01:44:32;;;;;;;27.90;22.10;;;;;;;;;;5095225;28;20472;-62
2021/09/08 01:47:17;;;;;;;31.33;22.13;;;;;;;;;;5095519;28;20060;-62
2021/09/08 01:50:03;;;;;;;26.35;22.88;;;;;;;;;;5095065;28;20651;-62
2021/09/08 01:52:48;;;;;;;29.05;23.25;;;;;;;;;;5095214;28;20052;-62
2021/09/08 01:55:34;;;;;;;28.67;23.00;;;;;;;;;;5095176;28;20048;-63
2021/09/08 01:58:19;;;;;;;33.88;23.80;;;;;;;;;;5079931;28;20118;-63
2021/09/08 02:01:04;;;;;;;31.23;23.40;;;;;;;;;;5095157;28;20056;-62
2021/09/08 02:03:49;;;;;;;30.67;23.58;;;;;;;;;;5095043;28;20084;-61
2021/09/08 02:06:35;;;;;;;30.88;23.15;;;;;;;;;;5094899;28;20052;-62
2021/09/08 02:09:21;;;;;;;28.48;22.02;;;;;;;;;;5094774;28;20490;-62
2021/09/08 02:12:06;;;;;;;28.02;22.10;;;;;;;;;;5095028;28;20090;-62
2021/09/08 02:14:51;;;;;;;29.42;22.85;;;;;;;;;;5094772;28;20048;-63
2021/09/08 02:17:37;;;;;;;31.33;23.77;;;;;;;;;;5095029;28;20102;-62
2021/09/08 02:20:22;;;;;;;28.70;22.75;;;;;;;;;;5094788;28;20052;-63
2021/09/08 02:23:07;;;;;;;28.20;23.48;;;;;;;;;;5094894;28;20056;-63
2021/09/08 02:25:53;;;;;;;27.45;22.10;;;;;;;;;;5094817;28;20052;-62
2021/09/08 02:28:38;;;;;;;25.67;21.33;;;;;;;;;;5094407;28;20060;-62
2021/09/08 02:31:24;;;;;;;27.88;21.17;;;;;;;;;;5094559;28;20127;-63
2021/09/08 02:34:09;;;;;;;27.50;22.05;;;;;;;;;;5094435;28;20052;-63
2021/09/08 02:36:54;;;;;;;26.10;21.35;;;;;;;;;;5100369;28;20051;-63
2021/09/08 02:39:40;;;;;;;26.85;22.42;;;;;;;;;;5103442;28;20308;-64
2021/09/08 02:42:25;;;;;;;29.77;22.60;;;;;;;;;;5104248;28;20039;-63
2021/09/08 02:45:11;;;;;;;28.83;23.38;;;;;;;;;;5104734;28;20052;-63
2021/09/08 02:47:56;;;;;;;26.13;23.02;;;;;;;;;;5104434;28;20091;-63
2021/09/08 02:50:41;;;;;;;25.85;22.30;;;;;;;;;;5103677;28;20048;-63
2021/09/08 02:53:27;;;;;;;27.10;21.83;;;;;;;;;;5098448;28;20056;-62
2021/09/08 02:56:12;;;;;;;28.05;22.42;;;;;;;;;;5098159;28;20048;-63
2021/09/08 02:58:57;;;;;;;27.92;22.70;;;;;;;;;;5099259;28;20056;-62
2021/09/08 03:01:43;;;;;;;25.33;22.13;;;;;;;;;;5099274;28;20052;-62
2021/09/08 03:04:28;;;;;;;25.70;21.02;;;;;;;;;;5093731;28;20048;-62
2021/09/08 03:07:14;;;;;;;26.10;22.83;;;;;;;;;;5093857;28;20043;-62
2021/09/08 03:09:59;;;;;;;28.10;22.40;;;;;;;;;;5093517;28;20066;-61
2021/09/08 03:12:44;;;;;;;29.77;22.65;;;;;;;;;;5093636;28;20501;-62
2021/09/08 03:15:30;;;;;;;29.65;22.80;;;;;;;;;;5093488;28;20048;-62
2021/09/08 03:18:15;;;;;;;28.00;22.83;;;;;;;;;;5134909;22;20127;-64
2021/09/08 03:21:00;;;;;;;28.50;22.02;;;;;;;;;;5072815;28;20053;-64
2021/09/08 03:23:46;;;;;;;29.10;22.80;;;;;;;;;;5073057;28;20131;-64
2021/09/08 03:26:31;;;;;;;26.98;21.75;;;;;;;;;;5073099;28;20048;-64
2021/09/08 03:29:16;;;;;;;28.50;22.88;;;;;;;;;;5073077;28;20135;-64
2021/09/08 03:32:02;;;;;;;26.15;22.48;;;;;;;;;;5073161;28;20045;-64
2021/09/08 03:34:47;;;;;;;30.13;22.63;;;;;;;;;;5072749;28;20053;-64
2021/09/08 03:37:32;;;;;;;28.92;23.00;;;;;;;;;;5072903;28;20048;-64
2021/09/08 03:40:18;;;;;;;31.25;23.23;;;;;;;;;;5072943;28;20419;-64
2021/09/08 03:43:03;;;;;;;28.05;22.70;;;;;;;;;;5072839;28;20056;-65
2021/09/08 03:45:48;;;;;;;30.70;22.85;;;;;;;;;;5072559;28;20056;-64
2021/09/08 03:48:34;;;;;;;27.58;22.08;;;;;;;;;;5072711;28;20123;-64
2021/09/08 03:51:19;;;;;;;29.95;22.80;;;;;;;;;;5072196;28;20060;-64
2021/09/08 03:54:04;;;;;;;30.52;22.88;;;;;;;;;;5072400;28;20431;-64
2021/09/08 03:56:49;;;;;;;26.50;22.23;;;;;;;;;;5072725;28;20052;-63
2021/09/08 03:59:35;;;;;;;30.67;22.60;;;;;;;;;;5072500;28;20052;-63
2021/09/08 04:02:21;;;;;;;27.88;22.27;;;;;;;;;;5072380;28;20056;-64
2021/09/08 04:05:07;;;;;;;30.70;23.35;;;;;;;;;;5072287;28;20086;-64
2021/09/08 04:07:52;;;;;;;30.80;24.55;;;;;;;;;;5072448;28;20049;-64
2021/09/08 04:10:38;;;;;;;30.05;23.58;;;;;;;;;;5072188;28;20052;-64
2021/09/08 04:13:23;;;;;;;28.75;23.08;;;;;;;;;;5072453;28;20048;-63
2021/09/08 04:16:08;;;;;;;28.38;23.15;;;;;;;;;;5072336;28;20052;-64
2021/09/08 04:18:54;;;;;;;26.63;21.13;;;;;;;;;;5071952;28;20044;-63
2021/09/08 04:21:39;;;;;;;30.27;23.58;;;;;;;;;;5072359;28;20056;-64
2021/09/08 04:24:24;;;;;;;27.55;21.65;;;;;;;;;;5071999;28;20052;-63
2021/09/08 04:27:10;;;;;;;28.77;22.75;;;;;;;;;;5072084;28;20505;-64
2021/09/08 04:29:56;;;;;;;27.83;22.27;;;;;;;;;;5072136;28;20102;-63
2021/09/08 04:32:41;;;;;;;28.55;22.88;;;;;;;;;;5072143;28;20409;-64
2021/09/08 04:35:26;;;;;;;28.70;22.90;;;;;;;;;;5071771;28;20049;-63
2021/09/08 04:38:11;;;;;;;28.70;22.75;;;;;;;;;;5072148;28;20056;-63
2021/09/08 04:40:57;;;;;;;27.70;23.05;;;;;;;;;;5072060;28;20059;-64
2021/09/08 04:43:42;;;;;;;33.58;23.73;;;;;;;;;;5071613;28;20090;-64
2021/09/08 04:46:28;;;;;;;29.58;24.20;;;;;;;;;;5072112;28;20413;-64
2021/09/08 04:49:13;;;;;;;31.13;24.55;;;;;;;;;;5071971;28;20048;-64
2021/09/08 04:51:59;;;;;;;30.60;24.63;;;;;;;;;;5071897;28;20064;-64
2021/09/08 04:54:44;;;;;;;35.15;25.98;;;;;;;;;;5071787;28;20048;-64
2021/09/08 04:57:29;;;;;;;33.38;26.23;;;;;;;;;;5071819;28;20465;-64
2021/09/08 05:00:15;;;;;;;33.38;25.27;;;;;;;;;;5071829;28;20048;-64
2021/09/08 05:03:01;;;;;;;32.80;24.85;;;;;;;;;;5072465;28;20071;-64
2021/09/08 05:05:46;;;;;;;36.28;25.10;;;;;;;;;;5075599;28;20514;-64
2021/09/08 05:08:32;;;;;;;33.00;25.80;;;;;;;;;;5075772;28;20186;-63
2021/09/08 05:11:17;;;;;;;31.05;24.73;;;;;;;;;;5056770;28;20090;-64
2021/09/08 05:14:02;;;;;;;32.22;23.65;;;;;;;;;;5068631;28;20053;-64
2021/09/08 05:16:47;;;;;;;33.97;26.38;;;;;;;;;;5065044;28;20049;-63
2021/09/08 05:19:33;;;;;;;33.42;26.55;;;;;;;;;;5059566;28;20044;-64
2021/09/08 05:22:19;;;;;;;35.40;24.95;;;;;;;;;;5072438;28;20056;-64
2021/09/08 05:25:04;;;;;;;38.80;26.58;;;;;;;;;;5074125;28;20056;-64
2021/09/08 05:27:49;;;;;;;34.92;24.90;;;;;;;;;;5075399;28;20460;-64
2021/09/08 05:30:34;;;;;;;32.30;24.15;;;;;;;;;;5073529;28;20123;-64
2021/09/08 05:33:20;;;;;;;33.83;24.85;;;;;;;;;;5066884;28;20124;-63
2021/09/08 05:36:05;;;;;;;29.40;23.70;;;;;;;;;;5069404;28;20573;-63
2021/09/08 05:38:50;;;;;;;33.08;23.58;;;;;;;;;;5062229;28;20052;-64
2021/09/08 05:41:36;;;;;;;30.85;24.42;;;;;;;;;;5061733;28;20506;-63
2021/09/08 05:44:21;;;;;;;29.20;23.17;;;;;;;;;;5074771;28;20422;-64
2021/09/08 05:47:07;;;;;;;27.25;23.05;;;;;;;;;;5075242;28;20124;-64
2021/09/08 05:49:52;;;;;;;26.02;21.27;;;;;;;;;;5074867;28;20054;-64
2021/09/08 05:52:38;;;;;;;28.10;23.10;;;;;;;;;;5074894;28;20049;-64
2021/09/08 05:55:23;;;;;;;27.55;24.08;;;;;;;;;;5074820;28;20045;-64
2021/09/08 05:58:08;;;;;;;27.58;22.85;;;;;;;;;;5074734;28;20410;-64
2021/09/08 06:00:54;;;;;;;28.25;21.80;;;;;;;;;;5074714;28;20060;-64
2021/09/08 06:03:39;;;;;;;27.40;22.23;;;;;;;;;;5074680;28;20060;-64
2021/09/08 06:06:25;;;;;;;38.67;23.45;;;;;;;;;;5074826;28;20056;-64
2021/09/08 06:09:10;;;;;;;29.42;22.98;;;;;;;;;;5074529;28;20044;-64
2021/09/08 06:11:58;;;;;;;28.10;22.15;;;;;;;;;;5074681;28;20082;-64
2021/09/08 06:14:43;;;;;;;30.20;21.75;;;;;;;;;;5073904;28;20088;-65
2021/09/08 06:17:29;;;;;;;32.28;23.08;;;;;;;;;;5074502;28;20049;-64
2021/09/08 06:20:15;;;;;;;28.92;23.60;;;;;;;;;;5074311;28;20057;-64
2021/09/08 06:23:00;;;;;;;29.30;22.58;;;;;;;;;;5074541;28;20057;-64
2021/09/08 06:25:45;;;;;;;28.70;22.42;;;;;;;;;;5074051;28;20044;-64
2021/09/08 06:28:30;;;;;;;28.08;22.55;;;;;;;;;;5074079;28;20052;-64
2021/09/08 06:31:16;;;;;;;28.17;22.95;;;;;;;;;;5073344;28;20048;-65
2021/09/08 06:34:01;;;;;;;31.30;21.92;;;;;;;;;;5073944;28;20115;-64
2021/09/08 06:36:49;;;;;;;30.90;22.15;;;;;;;;;;5074281;28;20052;-64
2021/09/08 06:39:34;;;;;;;25.52;20.50;;;;;;;;;;5069899;28;20120;-65
2021/09/08 06:42:20;;;;;;;24.70;18.80;;;;;;;;;;5060473;28;20052;-65
2021/09/08 06:45:05;;;;;;;25.73;20.55;;;;;;;;;;5070467;28;20056;-65
2021/09/08 06:47:50;;;;;;;27.45;20.67;;;;;;;;;;5071109;28;20120;-65
2021/09/08 06:50:36;;;;;;;26.65;20.50;;;;;;;;;;5073471;28;20053;-65
2021/09/08 06:53:21;;;;;;;26.73;20.77;;;;;;;;;;5073871;28;20048;-64
2021/09/08 06:56:07;;;;;;;25.30;21.48;;;;;;;;;;5073911;28;20419;-64
2021/09/08 06:58:52;;;;;;;31.13;20.65;;;;;;;;;;5067234;28;20052;-64
2021/09/08 07:01:37;;;;;;;24.98;21.02;;;;;;;;;;5072285;28;20461;-64
2021/09/08 07:04:22;;;;;;;24.85;20.73;;;;;;;;;;5062140;28;20123;-64
2021/09/08 07:07:08;;;;;;;22.95;19.63;;;;;;;;;;5073365;28;20128;-64
2021/09/08 07:09:53;;;;;;;23.67;19.67;;;;;;;;;;5058051;28;20061;-64
2021/09/08 07:12:38;;;;;;;22.58;18.30;;;;;;;;;;5072346;28;20498;-64
2021/09/08 07:15:23;;;;;;;21.08;18.67;;;;;;;;;;5073159;28;20052;-64
2021/09/08 07:18:09;;;;;;;27.40;19.30;;;;;;;;;;5072801;28;20052;-64
2021/09/08 07:20:54;;;;;;;24.15;19.17;;;;;;;;;;5073412;28;20084;-64
2021/09/08 07:23:39;;;;;;;21.67;18.90;;;;;;;;;;5072866;28;20506;-64
2021/09/08 07:26:26;;;;;;;21.60;18.23;;;;;;;;;;5072239;28;20048;-64
2021/09/08 07:29:11;;;;;;;22.08;18.20;;;;;;;;;;5073052;28;20052;-64
2021/09/08 07:31:57;;;;;;;20.25;18.05;;;;;;;;;;5072678;28;20049;-65
2021/09/08 07:34:42;;;;;;;22.10;16.73;;;;;;;;;;5072560;28;20495;-65
2021/09/08 07:37:28;;;;;;;23.13;17.50;;;;;;;;;;5073070;28;20052;-64
2021/09/08 07:40:13;;;;;;;19.85;17.02;;;;;;;;;;5072623;28;20080;-65
2021/09/08 07:42:59;;;;;;;21.67;16.88;;;;;;;;;;5088150;28;20500;-65
2021/09/08 07:45:44;;;;;;;20.25;16.58;;;;;;;;;;5092792;28;20513;-65
2021/09/08 07:48:29;;;;;;;18.63;16.58;;;;;;;;;;5092984;28;20119;-65
2021/09/08 07:51:15;;;;;;;20.50;16.88;;;;;;;;;;5092824;28;20052;-65
2021/09/08 07:54:00;;;;;;;18.63;15.57;;;;;;;;;;5092747;28;20048;-65
2021/09/08 07:56:45;;;;;;;19.35;16.40;;;;;;;;;;5087032;28;20517;-65
2021/09/08 07:59:31;;;;;;;20.45;15.85;;;;;;;;;;5072337;28;20048;-66
2021/09/08 08:02:16;;;;;;;17.02;15.32;;;;;;;;;;5072680;28;20060;-65
2021/09/08 08:05:01;;;;;;;17.13;15.32;;;;;;;;;;5072312;28;20078;-65
2021/09/08 08:07:47;;;;;;;16.27;14.07;;;;;;;;;;5072010;28;20123;-65
2021/09/08 08:10:33;;;;;;;17.70;13.50;;;;;;;;;;5071472;28;20494;-65
2021/09/08 08:13:18;;;;;;;19.23;14.95;;;;;;;;;;5072305;28;20048;-65
2021/09/08 08:16:03;;;;;;;19.33;14.27;;;;;;;;;;5072299;28;20054;-65
2021/09/08 08:18:48;;;;;;;18.88;13.93;;;;;;;;;;5072187;28;20127;-66
2021/09/08 08:21:34;;;;;;;16.95;14.30;;;;;;;;;;5072276;28;20056;-65
2021/09/08 08:24:19;;;;;;;15.85;13.20;;;;;;;;;;5072135;28;20056;-66
2021/09/08 08:27:05;;;;;;;14.98;13.43;;;;;;;;;;5072233;28;20057;-65
2021/09/08 08:29:50;;;;;;;17.40;13.90;;;;;;;;;;5072116;28;20064;-66
2021/09/08 08:32:35;;;;;;;17.05;12.32;;;;;;;;;;5072148;28;20068;-65
2021/09/08 08:35:21;;;;;;;13.70;12.20;;;;;;;;;;5072100;28;20057;-64
2021/09/08 08:38:06;;;;;;;14.40;12.02;;;;;;;;;;5071979;28;20048;-65
2021/09/08 08:40:51;;;;;;;15.23;12.55;;;;;;;;;;5071999;28;20052;-66
2021/09/08 08:43:37;;;;;;;17.73;11.32;;;;;;;;;;5071643;28;20044;-65
2021/09/08 08:46:22;;;;;;;12.48;11.00;;;;;;;;;;5072068;28;20045;-65
2021/09/08 08:49:07;;;;;;;15.38;10.93;;;;;;;;;;5056870;28;20053;-65
2021/09/08 08:51:52;;;;;;;13.90;11.57;;;;;;;;;;5071751;28;20052;-66
2021/09/08 08:54:37;;;;;;;12.32;11.00;;;;;;;;;;5071774;28;20041;-65
2021/09/08 08:57:23;;;;;;;13.00;11.27;;;;;;;;;;5071922;28;20387;-65
2021/09/08 09:00:08;;;;;;;15.10;9.95;;;;;;;;;;5071693;28;20053;-65
2021/09/08 09:02:54;;;;;;;14.23;10.50;;;;;;;;;;5071997;28;20052;-65
2021/09/08 09:05:41;;;;;;;14.30;10.50;;;;;;;;;;5071683;28;20052;-64
2021/09/08 09:08:26;;;;;;;14.02;10.50;;;;;;;;;;5071630;28;20462;-65
2021/09/08 09:11:11;;;;;;;13.85;11.00;;;;;;;;;;5056757;28;20127;-65
2021/09/08 09:13:56;;;;;;;15.57;10.38;;;;;;;;;;5071520;28;20120;-66
2021/09/08 09:16:42;;;;;;;11.68;10.48;;;;;;;;;;5071545;28;20469;-66
2021/09/08 09:19:27;;;;;;;11.82;9.50;;;;;;;;;;5071990;28;20478;-66
2021/09/08 09:22:13;;;;;;;11.25;9.70;;;;;;;;;;5071546;28;20506;-66
2021/09/08 09:24:58;;;;;;;10.80;9.40;;;;;;;;;;5071231;28;20407;-66
2021/09/08 09:27:47;;;;;;;12.75;9.27;;;;;;;;;;5071484;28;20506;-66
2021/09/08 09:30:36;;;;;;;12.27;9.45;;;;;;;;;;5071532;28;20061;-66
2021/09/08 09:33:27;;;;;;;12.75;8.80;;;;;;;;;;5071397;28;20044;-65
2021/09/08 09:36:16;;;;;;;15.65;9.35;;;;;;;;;;5071671;28;20123;-66
2021/09/08 09:39:01;;;;;;;11.32;8.68;;;;;;;;;;5071382;28;20049;-66
2021/09/08 09:41:46;;;;;;;10.18;8.73;;;;;;;;;;5071432;28;20053;-66
2021/09/08 09:44:32;;;;;;;10.07;8.13;;;;;;;;;;5071180;28;20052;-66
2021/09/08 09:47:19;;;;;;;10.13;8.23;;;;;;;;;;5071185;28;20123;-65
2021/09/08 09:50:08;;;;;;;10.43;8.60;;;;;;;;;;5072420;28;20044;-65
2021/09/08 09:52:53;;;;;;;9.07;8.18;;;;;;;;;;5075160;28;20056;-66
2021/09/08 09:55:38;;;;;;;10.60;8.55;;;;;;;;;;5074495;28;20049;-67
2021/09/08 09:58:23;;;;;;;10.20;8.73;;;;;;;;;;5074597;28;20060;-66
2021/09/08 10:01:09;;;;;;;12.77;9.25;;;;;;;;;;5074969;28;20053;-66
2021/09/08 10:03:54;;;;;;;10.48;8.65;;;;;;;;;;5074314;28;20392;-66
2021/09/08 10:06:40;;;;;;;9.23;7.90;;;;;;;;;;5074735;28;20131;-67
2021/09/08 10:09:25;;;;;;;14.20;8.52;;;;;;;;;;5074775;28;20053;-66
2021/09/08 10:12:11;;;;;;;9.68;8.05;;;;;;;;;;5074577;28;20419;-66
2021/09/08 10:14:55;;;;;;;9.27;7.72;;;;;;;;;;5073331;28;20049;-67
2021/09/08 10:17:41;;;;;;;8.15;7.35;;;;;;;;;;5073760;28;20053;-66
2021/09/08 10:20:26;;;;;;;9.60;8.18;;;;;;;;;;5074261;28;20052;-66
2021/09/08 10:23:14;;;;;;;10.95;8.30;;;;;;;;;;5074411;28;20442;-66
2021/09/08 10:25:59;;;;;;;9.98;8.02;;;;;;;;;;5073601;28;20057;-66
2021/09/08 10:28:44;;;;;;;10.10;8.13;;;;;;;;;;5074374;28;20053;-66
2021/09/08 10:31:29;;;;;;;9.02;8.13;;;;;;;;;;5074263;28;20049;-66
2021/09/08 10:34:16;;;;;;;10.38;7.97;;;;;;;;;;5073159;28;20052;-66
2021/09/08 10:37:01;;;;;;;9.48;7.75;;;;;;;;;;5074300;28;20419;-66
2021/09/08 10:39:47;;;;;;;11.80;7.93;;;;;;;;;;5072970;28;20523;-66
2021/09/08 10:42:47;;;;;;;9.48;8.20;;;;;;;;;;5074253;28;20056;-66
2021/09/08 10:45:32;;;;;;;12.68;7.65;;;;;;;;;;5073853;28;20094;-66
2021/09/08 10:48:36;;;;;;;9.65;7.30;;;;;;;;;;5073914;28;20498;-66
2021/09/08 10:51:44;;;;;;;8.88;7.28;;;;;;;;;;5073938;28;20052;-67
2021/09/08 10:54:29;;;;;;;9.07;8.10;;;;;;;;;;5073555;28;20506;-66
2021/09/08 10:57:24;;;;;;;8.30;6.47;;;;;;;;;;5073010;28;20052;-66
2021/09/08 11:00:13;;;;;;;8.40;6.38;;;;;;;;;;5072316;28;20041;-67
2021/09/08 11:02:58;;;;;;;7.32;6.05;;;;;;;;;;5073469;28;20052;-67
2021/09/08 11:05:49;;;;;;;6.72;5.72;;;;;;;;;;5073710;28;20127;-67
2021/09/08 11:08:34;;;;;;;11.02;5.60;;;;;;;;;;5073550;28;20049;-66
2021/09/08 11:11:20;;;;;;;6.85;6.25;;;;;;;;;;5073401;28;20044;-66
2021/09/08 11:14:06;;;;;;;7.55;6.25;;;;;;;;;;5073200;28;20495;-66
2021/09/08 11:16:51;;;;;;;9.80;5.40;;;;;;;;;;5073519;28;20056;-66
2021/09/08 11:19:36;;;;;;;7.95;5.57;;;;;;;;;;5073203;28;20045;-66
2021/09/08 11:22:21;;;;;;;7.10;5.40;;;;;;;;;;5073437;28;20056;-66
2021/09/08 11:25:11;;;;;;;6.07;5.47;;;;;;;;;;5073064;28;20117;-65
2021/09/08 11:27:56;;;;;;;6.93;5.57;;;;;;;;;;5073115;28;20056;-65
2021/09/08 11:30:42;;;;;;;5.93;5.40;;;;;;;;;;5073237;28;20075;-64
2021/09/08 11:33:35;;;;;;;5.65;5.10;;;;;;;;;;5072802;28;20044;-64
2021/09/08 11:36:20;;;;;;;6.70;5.30;;;;;;;;;;5072151;28;20060;-64
2021/09/08 11:39:10;;;;;;;7.30;5.07;;;;;;;;;;5070686;28;20418;-64
2021/09/08 11:42:01;;;;;;;6.05;5.43;;;;;;;;;;5069849;28;20422;-64
2021/09/08 12:35:32;;;;;;;5.03;4.40;;;;;;;;;;5071802;28;20039;-64
2021/09/08 12:38:25;;;;;;;6.18;4.25;;;;;;;;;;5072044;28;20123;-64
2021/09/08 12:41:11;;;;;;;4.47;4.07;;;;;;;;;;5071941;28;20506;-64
2021/09/08 12:43:56;;;;;;;5.05;4.55;;;;;;;;;;5071852;28;20056;-65
2021/09/08 12:46:41;;;;;;;5.13;4.63;;;;;;;;;;5072022;28;20052;-64
2021/09/08 12:49:28;;;;;;;6.68;5.15;;;;;;;;;;5071840;28;20064;-65
2021/09/08 12:52:17;;;;;;;7.90;5.38;;;;;;;;;;5072050;28;20048;-64
2021/09/08 12:55:02;;;;;;;6.50;4.68;;;;;;;;;;5071659;28;20049;-64
2021/09/08 12:57:48;;;;;;;6.93;5.20;;;;;;;;;;5071807;28;20052;-65
2021/09/08 13:00:33;;;;;;;7.57;5.22;;;;;;;;;;5071741;28;20147;-65
2021/09/08 13:03:19;;;;;;;6.38;4.97;;;;;;;;;;5071876;28;20053;-64
2021/09/08 13:06:04;;;;;;;7.18;4.82;;;;;;;;;;5071674;28;20052;-64
2021/09/08 13:08:50;;;;;;;7.80;5.05;;;;;;;;;;5071620;28;20419;-64
2021/09/08 13:11:36;;;;;;;9.70;6.60;;;;;;;;;;5071700;28;20123;-64
2021/09/08 13:14:21;;;;;;;6.13;5.22;;;;;;;;;;5071372;28;20417;-64
2021/09/08 13:17:06;;;;;;;5.75;5.10;;;;;;;;;;5071770;28;20049;-65
2021/09/08 13:19:52;;;;;;;9.25;5.00;;;;;;;;;;5071413;28;20052;-65
2021/09/08 13:22:38;;;;;;;5.82;4.97;;;;;;;;;;5071557;28;20052;-65
2021/09/08 13:25:23;;;;;;;7.15;5.13;;;;;;;;;;5074224;28;20056;-65
2021/09/08 13:28:08;;;;;;;5.03;4.63;;;;;;;;;;5075484;28;20582;-64
2021/09/08 13:30:54;;;;;;;7.75;5.20;;;;;;;;;;5075367;28;20123;-65
2021/09/08 13:33:39;;;;;;;6.53;4.80;;;;;;;;;;5075324;28;20119;-64
2021/09/08 13:36:24;;;;;;;6.25;5.40;;;;;;;;;;5075403;28;20052;-64
2021/09/08 13:39:10;;;;;;;7.20;6.20;;;;;;;;;;5075076;28;20053;-64
2021/09/08 13:41:55;;;;;;;8.02;5.55;;;;;;;;;;5075344;28;20048;-64
2021/09/08 13:44:40;;;;;;;7.03;5.28;;;;;;;;;;5074982;28;20057;-64
2021/09/08 13:47:25;;;;;;;6.43;5.35;;;;;;;;;;5075140;28;20052;-64
2021/09/08 13:50:11;;;;;;;7.32;5.50;;;;;;;;;;5075061;28;20048;-64
2021/09/08 13:52:56;;;;;;;7.95;5.05;;;;;;;;;;5074974;28;20049;-64
2021/09/08 13:55:41;;;;;;;8.13;5.30;;;;;;;;;;5074767;28;20052;-64
2021/09/08 13:58:27;;;;;;;4.75;4.35;;;;;;;;;;5075035;28;20052;-64
2021/09/08 14:01:12;;;;;;;5.20;4.57;;;;;;;;;;5074973;28;20060;-64
2021/09/08 14:03:58;;;;;;;4.25;3.80;;;;;;;;;;5074507;28;20049;-64
2021/09/08 14:06:43;;;;;;;7.00;4.47;;;;;;;;;;5074969;28;20410;-64
2021/09/08 14:09:28;;;;;;;5.63;4.90;;;;;;;;;;5074545;28;20522;-64
2021/09/08 14:12:14;;;;;;;5.22;3.92;;;;;;;;;;5074610;28;20052;-64
2021/09/08 14:14:59;;;;;;;4.38;3.97;;;;;;;;;;5074534;28;20052;-64
2021/09/08 14:17:46;;;;;;;5.50;4.22;;;;;;;;;;5074649;28;20044;-64
2021/09/08 14:20:31;;;;;;;5.05;3.85;;;;;;;;;;5074406;28;20057;-64
2021/09/08 14:23:16;;;;;;;4.28;3.58;;;;;;;;;;5074648;28;20052;-64
2021/09/08 14:26:01;;;;;;;7.40;3.75;;;;;;;;;;5074506;28;20048;-64
2021/09/08 14:28:46;;;;;;;3.65;3.35;;;;;;;;;;5074370;28;20178;-64
2021/09/08 14:31:34;;;;;;;5.30;4.32;;;;;;;;;;5074176;28;20064;-64
2021/09/08 14:34:20;;;;;;;4.10;3.80;;;;;;;;;;5074159;28;20048;-64
2021/09/08 14:37:05;;;;;;;7.65;4.15;;;;;;;;;;5074193;28;20119;-65
2021/09/08 14:39:51;;;;;;;4.63;3.90;;;;;;;;;;5074045;28;20060;-65
2021/09/08 14:42:36;;;;;;;5.28;3.90;;;;;;;;;;5074239;28;20060;-65
2021/09/08 14:45:22;;;;;;;9.05;4.78;;;;;;;;;;5073764;28;20561;-65
2021/09/08 14:48:09;;;;;;;4.88;4.18;;;;;;;;;;5073684;28;20127;-65
2021/09/08 14:50:55;;;;;;;7.05;4.70;;;;;;;;;;5074076;28;20053;-65
2021/09/08 14:53:40;;;;;;;6.97;4.40;;;;;;;;;;5073624;28;20053;-64
2021/09/08 14:56:26;;;;;;;6.03;4.82;;;;;;;;;;5073768;28;20482;-64
2021/09/08 14:59:12;;;;;;;4.45;4.05;;;;;;;;;;5073884;28;20049;-64
2021/09/08 15:01:57;;;;;;;5.03;3.95;;;;;;;;;;5073676;28;20513;-64
2021/09/08 15:04:43;;;;;;;4.80;4.20;;;;;;;;;;5073397;28;20132;-64
2021/09/08 15:07:28;;;;;;;5.35;3.97;;;;;;;;;;5073796;28;20064;-64
2021/09/08 15:10:13;;;;;;;8.38;3.92;;;;;;;;;;5073431;28;20502;-64
2021/09/08 15:12:58;;;;;;;5.45;4.65;;;;;;;;;;5072339;28;20053;-64
2021/09/08 15:15:43;;;;;;;7.18;4.30;;;;;;;;;;5073393;28;20128;-64
2021/09/08 15:18:54;;;;;;;5.90;4.55;;;;;;;;;;5074230;28;20060;-66
2021/09/08 15:21:39;;;;;;;8.38;4.75;;;;;;;;;;5032216;28;20065;-64
2021/09/08 15:24:25;;;;;;;6.90;4.95;;;;;;;;;;5032612;28;20053;-64
2021/09/08 15:27:10;;;;;;;7.72;5.05;;;;;;;;;;5033348;28;20474;-63
2021/09/08 15:29:55;;;;;;;5.85;4.93;;;;;;;;;;5045296;28;20509;-64
2021/09/08 15:32:41;;;;;;;7.15;4.40;;;;;;;;;;5053075;28;20414;-64
2021/09/08 15:35:26;;;;;;;6.40;4.63;;;;;;;;;;5052752;28;20049;-64
2021/09/08 15:38:12;;;;;;;6.22;4.93;;;;;;;;;;5053115;28;20403;-64
2021/09/08 15:40:57;;;;;;;7.68;4.55;;;;;;;;;;5053133;28;20049;-64
2021/09/08 15:43:42;;;;;;;5.28;4.45;;;;;;;;;;5052674;28;20057;-64
2021/09/08 15:46:27;;;;;;;7.47;4.43;;;;;;;;;;5052368;28;20500;-64
2021/09/08 15:49:13;;;;;;;6.15;5.05;;;;;;;;;;5052909;28;20091;-64
2021/09/08 15:51:58;;;;;;;5.10;4.63;;;;;;;;;;5052784;28;20053;-64
2021/09/08 15:54:43;;;;;;;5.80;5.03;;;;;;;;;;5052479;28;20044;-64
2021/09/08 15:57:29;;;;;;;5.47;4.90;;;;;;;;;;5052832;28;20115;-63
2021/09/08 16:00:14;;;;;;;6.47;5.20;;;;;;;;;;5052603;28;20052;-64
2021/09/08 16:02:59;;;;;;;6.00;5.40;;;;;;;;;;5052449;28;20499;-64
2021/09/08 16:05:45;;;;;;;6.13;5.13;;;;;;;;;;5052660;28;20395;-65
2021/09/08 16:08:30;;;;;;;6.70;5.82;;;;;;;;;;5052656;28;20119;-65
2021/09/08 16:11:16;;;;;;;5.60;5.10;;;;;;;;;;5052474;28;20053;-63
2021/09/08 16:14:02;;;;;;;8.20;5.53;;;;;;;;;;5052442;28;20120;-65
2021/09/08 16:16:48;;;;;;;6.20;5.45;;;;;;;;;;5052453;28;20049;-64
2021/09/08 16:19:33;;;;;;;8.15;5.28;;;;;;;;;;5052377;28;20049;-64
2021/09/08 16:22:18;;;;;;;9.45;5.68;;;;;;;;;;5052533;28;20052;-64
2021/09/08 16:25:04;;;;;;;7.70;5.15;;;;;;;;;;5052109;28;20061;-63
2021/09/08 16:27:49;;;;;;;5.80;5.20;;;;;;;;;;5052246;28;20057;-64
2021/09/08 16:30:34;;;;;;;6.13;5.53;;;;;;;;;;5052151;28;20360;-63
2021/09/08 16:33:19;;;;;;;8.30;6.00;;;;;;;;;;5052094;28;20053;-64
2021/09/08 16:36:05;;;;;;;7.30;6.60;;;;;;;;;;5052121;28;20473;-63
2021/09/08 16:38:50;;;;;;;6.63;5.93;;;;;;;;;;5052238;28;20045;-63
2021/09/08 16:41:36;;;;;;;6.57;5.85;;;;;;;;;;5052056;28;20636;-64
2021/09/08 16:44:21;;;;;;;11.07;5.85;;;;;;;;;;5051817;28;20057;-64
2021/09/08 16:47:08;;;;;;;15.32;6.30;;;;;;;;;;5050996;28;20049;-63
2021/09/08 16:49:54;;;;;;;10.73;6.15;;;;;;;;;;5051998;28;20053;-63
2021/09/08 16:52:40;;;;;;;6.72;6.03;;;;;;;;;;5052028;28;20053;-64
2021/09/08 16:55:24;;;;;;;8.45;6.82;;;;;;;;;;5051851;28;20045;-64
2021/09/08 16:58:10;;;;;;;7.50;6.80;;;;;;;;;;5052675;28;20045;-63
2021/09/08 17:00:55;;;;;;;10.98;7.25;;;;;;;;;;5056189;28;20123;-63
2021/09/08 17:03:40;;;;;;;9.80;6.38;;;;;;;;;;5056076;28;20128;-63
2021/09/08 17:06:26;;;;;;;7.63;6.22;;;;;;;;;;5056257;28;20053;-63